Time;durP1;ratioP1;P1;durP2;ratioP2;P2;SDS_P1;SDS_P2;PMS_P1;PMS_P2;Temp;Humidity;BMP_temperature;BMP_pressure;BME280_temperature;BME280_humidity;BME280_pressure;Samples;Min_cycle;Max_cycle;Signal;HPM_P1;HPM_P2
2022/07/20 00:01:50;;;;;;;3.40;2.10;;;23.90;72.70;;;;;;5016009;28;20095;-77
2022/07/20 00:04:16;;;;;;;3.17;1.60;;;23.80;72.70;;;;;;4999657;28;20037;-77
2022/07/20 00:06:42;;;;;;;3.60;2.00;;;23.70;73.00;;;;;;4999613;28;20159;-76
2022/07/20 00:11:52;;;;;;;2.80;1.90;;;23.70;73.00;;;;;;5016042;28;20052;-76
2022/07/20 00:14:18;;;;;;;2.97;1.73;;;23.60;72.80;;;;;;4999381;28;20045;-76
2022/07/20 00:16:43;;;;;;;3.70;1.48;;;23.60;73.30;;;;;;4999374;28;20119;-77
2022/07/20 00:19:09;;;;;;;5.32;1.85;;;23.60;73.20;;;;;;4983041;28;20048;-76
2022/07/20 00:21:35;;;;;;;2.70;1.77;;;23.50;73.10;;;;;;4999209;28;20042;-76
2022/07/20 00:24:01;;;;;;;1.80;1.33;;;23.50;73.40;;;;;;5015583;28;20081;-76
2022/07/20 00:26:27;;;;;;;2.75;1.73;;;23.40;73.40;;;;;;5015801;28;20076;-76
2022/07/20 00:28:52;;;;;;;3.28;2.15;;;23.30;73.30;;;;;;4999121;28;20045;-77
2022/07/20 00:31:20;;;;;;;2.65;1.92;;;23.30;73.70;;;;;;4983311;28;20041;-77
2022/07/20 00:33:46;;;;;;;4.75;1.77;;;23.30;73.40;;;;;;5015138;28;20053;-76
2022/07/20 00:36:14;;;;;;;2.53;1.77;;;23.20;73.50;;;;;;5015362;28;20041;-76
2022/07/20 00:38:40;;;;;;;2.90;1.73;;;23.20;73.90;;;;;;4999009;28;20048;-76
2022/07/20 00:41:06;;;;;;;2.25;1.52;;;23.10;74.40;;;;;;4999034;28;20048;-76
2022/07/20 00:43:56;;;;;;;3.95;1.77;;;23.10;74.00;;;;;;5015416;28;20041;-76
2022/07/20 00:46:22;;;;;;;6.55;1.92;;;23.10;74.50;;;;;;4999144;28;20513;-76
2022/07/20 00:48:48;;;;;;;3.10;1.80;;;23.00;74.90;;;;;;4982787;28;20041;-76
2022/07/20 00:51:14;;;;;;;3.22;1.83;;;23.00;74.60;;;;;;5015234;28;20052;-77
2022/07/20 00:53:40;;;;;;;3.88;1.42;;;23.00;74.50;;;;;;5015462;28;20045;-76
2022/07/20 00:56:07;;;;;;;4.85;2.00;;;22.90;74.40;;;;;;4999076;28;20052;-76
2022/07/20 00:58:33;;;;;;;1.60;1.45;;;22.90;74.40;;;;;;4998743;28;20064;-76
2022/07/20 01:00:59;;;;;;;4.30;1.70;;;22.80;74.60;;;;;;5015096;28;20487;-77
2022/07/20 01:03:25;;;;;;;2.55;1.90;;;22.80;75.00;;;;;;4998974;28;20037;-76
2022/07/20 01:05:50;;;;;;;2.15;1.90;;;22.70;75.00;;;;;;4998955;28;20037;-76
2022/07/20 01:08:16;;;;;;;2.60;1.83;;;22.70;75.50;;;;;;5015240;28;20045;-77
2022/07/20 01:10:43;;;;;;;3.78;2.13;;;22.60;75.00;;;;;;4982775;28;20033;-77
2022/07/20 01:13:08;;;;;;;3.10;1.75;;;22.60;75.00;;;;;;4998822;28;20048;-77
2022/07/20 01:15:34;;;;;;;4.13;2.10;;;22.60;75.10;;;;;;5014715;28;20042;-76
2022/07/20 01:17:59;;;;;;;1.80;1.45;;;22.50;75.20;;;;;;4998654;28;20099;-76
2022/07/20 01:20:26;;;;;;;2.35;1.60;;;22.50;75.20;;;;;;4982452;28;20038;-76
2022/07/20 01:22:52;;;;;;;3.95;1.92;;;22.40;76.40;;;;;;5015224;28;20041;-76
2022/07/20 01:25:18;;;;;;;2.58;2.00;;;22.40;75.60;;;;;;4982356;28;20044;-76
2022/07/20 01:27:44;;;;;;;4.75;2.00;;;22.40;75.70;;;;;;4998509;28;20080;-76
2022/07/20 01:30:10;;;;;;;3.65;1.67;;;22.40;76.30;;;;;;4998845;28;20412;-76
2022/07/20 01:32:36;;;;;;;1.95;1.55;;;22.30;75.90;;;;;;5015043;28;20489;-77
2022/07/20 01:35:01;;;;;;;3.17;2.00;;;22.30;75.80;;;;;;4998524;28;20052;-77
2022/07/20 01:37:28;;;;;;;2.65;1.77;;;22.30;75.90;;;;;;5014831;28;20053;-77
2022/07/20 01:39:53;;;;;;;3.58;1.70;;;22.20;75.90;;;;;;4998266;28;20041;-77
2022/07/20 01:42:19;;;;;;;3.47;1.85;;;22.20;76.20;;;;;;4998568;28;20531;-77
2022/07/20 01:44:45;;;;;;;2.70;1.80;;;22.10;76.60;;;;;;5000150;28;20041;-77
2022/07/20 01:47:10;;;;;;;4.65;2.00;;;22.10;76.40;;;;;;4985955;28;20041;-77
2022/07/20 01:49:36;;;;;;;2.83;1.83;;;22.00;76.40;;;;;;4985905;28;20420;-77
2022/07/20 01:52:02;;;;;;;2.55;1.83;;;22.00;76.20;;;;;;4986062;28;20048;-77
2022/07/20 01:54:28;;;;;;;4.05;1.98;;;22.00;76.20;;;;;;5002393;28;20124;-77
2022/07/20 01:56:53;;;;;;;2.95;2.15;;;22.00;76.40;;;;;;5002218;28;20050;-77
2022/07/20 01:59:19;;;;;;;3.97;2.13;;;22.00;76.60;;;;;;4985663;28;20041;-77
2022/07/20 02:01:45;;;;;;;2.83;1.80;;;21.90;76.70;;;;;;5018145;28;20505;-77
2022/07/20 02:04:10;;;;;;;3.80;1.88;;;21.90;76.30;;;;;;5001829;28;20038;-77
2022/07/20 02:06:36;;;;;;;2.33;1.80;;;21.90;76.20;;;;;;5001736;28;20124;-77
2022/07/20 02:09:02;;;;;;;5.38;2.08;;;21.90;76.50;;;;;;5018132;28;20569;-77
2022/07/20 02:11:28;;;;;;;3.55;1.80;;;21.90;76.30;;;;;;5018340;28;20087;-77
2022/07/20 02:13:54;;;;;;;3.65;1.85;;;21.90;76.20;;;;;;5001853;28;20077;-77
2022/07/20 02:16:20;;;;;;;5.22;2.30;;;21.90;76.60;;;;;;5001549;28;20061;-77
2022/07/20 02:18:57;;;;;;;3.72;1.90;;;21.80;76.30;;;;;;5001811;28;20120;-77
2022/07/20 02:21:23;;;;;;;1.90;1.42;;;21.80;76.40;;;;;;5017955;28;20045;-77
2022/07/20 02:23:50;;;;;;;3.60;1.70;;;21.80;76.20;;;;;;4985586;28;20045;-77
2022/07/20 02:26:16;;;;;;;3.55;2.15;;;21.80;76.50;;;;;;4985321;28;20067;-77
2022/07/20 02:28:41;;;;;;;2.70;1.80;;;21.80;76.50;;;;;;5001513;28;20044;-77
2022/07/20 02:31:08;;;;;;;4.18;1.77;;;21.80;77.30;;;;;;5001652;28;20112;-77
2022/07/20 02:33:34;;;;;;;2.55;1.98;;;21.70;76.70;;;;;;5001302;28;20037;-77
2022/07/20 02:35:59;;;;;;;3.00;2.03;;;21.70;76.70;;;;;;5017450;28;20045;-77
2022/07/20 02:38:26;;;;;;;3.30;2.20;;;21.70;76.50;;;;;;4984990;28;20452;-77
2022/07/20 02:40:52;;;;;;;2.85;2.00;;;21.70;76.70;;;;;;5017464;28;20045;-77
2022/07/20 02:43:18;;;;;;;3.47;1.83;;;21.70;76.60;;;;;;5017527;28;20072;-77
2022/07/20 02:45:44;;;;;;;2.85;1.83;;;21.70;76.50;;;;;;5001283;28;20531;-76
2022/07/20 02:48:10;;;;;;;4.07;2.00;;;21.70;76.30;;;;;;5001414;28;20033;-77
2022/07/20 02:50:38;;;;;;;2.85;1.80;;;21.70;76.60;;;;;;4984868;28;20081;-77
2022/07/20 02:53:05;;;;;;;2.65;1.70;;;21.70;76.50;;;;;;5017220;28;20040;-77
2022/07/20 02:55:32;;;;;;;3.85;2.25;;;21.70;77.00;;;;;;5017706;28;20499;-77
2022/07/20 02:57:58;;;;;;;2.72;1.77;;;21.70;76.60;;;;;;5017175;28;20041;-77
2022/07/20 03:00:24;;;;;;;2.42;1.92;;;21.70;76.70;;;;;;5017065;28;20049;-77
2022/07/20 03:02:49;;;;;;;2.20;1.65;;;21.50;76.50;;;;;;5035081;28;20460;-77
2022/07/20 03:05:16;;;;;;;3.65;2.30;;;21.60;76.90;;;;;;5016999;28;20041;-77
2022/07/20 03:07:42;;;;;;;3.58;2.33;;;21.60;76.90;;;;;;5016990;28;20064;-76
2022/07/20 03:10:09;;;;;;;2.42;1.67;;;21.60;76.90;;;;;;5001110;28;20045;-77
2022/07/20 03:12:34;;;;;;;2.28;1.88;;;21.50;76.80;;;;;;5017210;28;20037;-77
2022/07/20 03:15:00;;;;;;;3.35;1.55;;;21.50;77.00;;;;;;5016643;28;20052;-77
2022/07/20 03:17:26;;;;;;;3.20;1.70;;;21.50;77.40;;;;;;5016964;28;20049;-76
2022/07/20 03:19:52;;;;;;;3.65;1.70;;;21.40;77.50;;;;;;5000467;28;20485;-76
2022/07/20 03:22:18;;;;;;;3.28;1.90;;;21.40;77.20;;;;;;5000789;28;20060;-77
2022/07/20 03:24:44;;;;;;;4.55;2.40;;;21.30;77.60;;;;;;5016679;28;20052;-77
2022/07/20 03:27:09;;;;;;;1.90;1.70;;;21.30;77.90;;;;;;5000400;28;20033;-77
2022/07/20 03:29:36;;;;;;;2.38;1.67;;;21.30;78.00;;;;;;5016822;28;20477;-77
2022/07/20 03:32:02;;;;;;;3.38;2.17;;;21.30;77.80;;;;;;5000157;28;20076;-77
2022/07/20 03:34:28;;;;;;;3.05;2.22;;;21.20;77.50;;;;;;5016763;28;20044;-77
2022/07/20 03:36:54;;;;;;;4.20;2.30;;;21.20;77.50;;;;;;5016320;28;20041;-77
2022/07/20 03:39:20;;;;;;;2.63;1.92;;;21.20;77.60;;;;;;5016326;28;20472;-76
2022/07/20 03:41:45;;;;;;;4.40;2.20;;;21.20;77.60;;;;;;5000239;28;20073;-77
2022/07/20 03:44:11;;;;;;;3.78;2.45;;;21.20;77.80;;;;;;5016514;28;20126;-77
2022/07/20 03:46:37;;;;;;;2.75;1.95;;;21.20;77.80;;;;;;5016553;28;20042;-77
2022/07/20 03:49:02;;;;;;;3.60;1.92;;;21.10;78.10;;;;;;5016555;28;20084;-77
2022/07/20 03:51:28;;;;;;;3.17;2.20;;;21.10;78.20;;;;;;5016766;28;20132;-77
2022/07/20 03:53:54;;;;;;;2.67;1.98;;;21.10;78.70;;;;;;4983805;28;20049;-77
2022/07/20 03:56:20;;;;;;;4.35;1.85;;;21.00;78.50;;;;;;4999736;28;20046;-77
2022/07/20 03:58:45;;;;;;;3.28;2.15;;;21.00;78.70;;;;;;5015900;28;20481;-77
2022/07/20 04:01:11;;;;;;;2.88;1.80;;;21.00;78.60;;;;;;4999640;28;20037;-77
2022/07/20 04:03:37;;;;;;;3.13;2.00;;;21.00;78.90;;;;;;5015919;28;20076;-77
2022/07/20 04:06:03;;;;;;;3.17;2.10;;;20.90;79.30;;;;;;5015809;28;20444;-77
2022/07/20 04:08:29;;;;;;;5.40;2.60;;;20.90;79.30;;;;;;5015709;28;20520;-77
2022/07/20 04:10:55;;;;;;;3.03;2.30;;;20.90;79.90;;;;;;5015761;28;20033;-77
2022/07/20 04:13:21;;;;;;;3.80;2.00;;;20.80;79.90;;;;;;5015839;28;20045;-76
2022/07/20 04:15:46;;;;;;;2.55;1.83;;;20.80;80.60;;;;;;4999178;28;20049;-77
2022/07/20 04:18:14;;;;;;;5.63;2.17;;;20.80;80.60;;;;;;4999233;28;20053;-76
2022/07/20 04:20:41;;;;;;;3.22;2.22;;;20.80;79.90;;;;;;5016081;28;20128;-76
2022/07/20 04:23:07;;;;;;;3.55;2.22;;;20.80;80.40;;;;;;4999266;28;20033;-77
2022/07/20 04:25:32;;;;;;;4.00;2.45;;;20.80;80.40;;;;;;5015575;28;20045;-77
2022/07/20 04:27:58;;;;;;;2.58;1.95;;;20.80;80.20;;;;;;4999205;28;20488;-77
2022/07/20 04:30:24;;;;;;;3.70;1.90;;;20.80;80.20;;;;;;4983316;28;20045;-77
2022/07/20 04:32:49;;;;;;;3.75;2.20;;;20.90;79.80;;;;;;5015438;28;20045;-77
2022/07/20 04:35:15;;;;;;;2.55;1.90;;;20.90;79.90;;;;;;5015763;28;20049;-77
2022/07/20 04:37:41;;;;;;;5.25;2.28;;;20.90;80.20;;;;;;4999162;28;20049;-77
2022/07/20 04:40:07;;;;;;;2.63;1.95;;;21.00;80.00;;;;;;4998958;28;20038;-76
2022/07/20 04:42:33;;;;;;;3.45;2.00;;;21.10;79.80;;;;;;5015341;28;20068;-76
2022/07/20 04:44:59;;;;;;;2.50;1.98;;;21.10;79.90;;;;;;5015259;28;20037;-76
2022/07/20 04:47:24;;;;;;;3.35;2.10;;;21.10;79.90;;;;;;4998969;28;20048;-77
2022/07/20 04:49:50;;;;;;;4.90;1.60;;;21.20;80.10;;;;;;5015260;28;20524;-77
2022/07/20 04:52:15;;;;;;;3.38;2.13;;;21.30;79.80;;;;;;4998886;28;20057;-76
2022/07/20 04:54:41;;;;;;;3.53;2.00;;;21.30;80.30;;;;;;4982791;28;20045;-77
2022/07/20 04:57:08;;;;;;;4.03;2.20;;;21.30;80.20;;;;;;4999069;28;20045;-77
2022/07/20 04:59:34;;;;;;;2.85;1.95;;;21.40;80.60;;;;;;4998762;28;20037;-77
2022/07/20 05:02:00;;;;;;;3.95;2.17;;;21.40;79.90;;;;;;5015065;28;20386;-76
2022/07/20 05:04:26;;;;;;;3.05;2.17;;;21.50;79.90;;;;;;5015155;28;20045;-76
2022/07/20 05:06:52;;;;;;;4.80;2.00;;;21.60;79.40;;;;;;5015098;28;20037;-76
2022/07/20 05:09:18;;;;;;;2.92;1.90;;;21.70;79.30;;;;;;5015053;28;20167;-76
2022/07/20 05:11:43;;;;;;;3.33;1.92;;;21.80;79.50;;;;;;5015265;28;20037;-76
2022/07/20 05:14:10;;;;;;;3.10;2.05;;;21.90;79.20;;;;;;5014951;28;20048;-76
2022/07/20 05:16:36;;;;;;;2.60;1.70;;;22.00;79.50;;;;;;4982557;28;20404;-76
2022/07/20 05:19:02;;;;;;;3.25;1.90;;;22.10;79.70;;;;;;4999339;28;20049;-76
2022/07/20 05:21:28;;;;;;;3.22;2.10;;;22.10;78.90;;;;;;5002941;28;20064;-77
2022/07/20 05:23:53;;;;;;;3.38;1.80;;;22.20;79.10;;;;;;5002633;28;20560;-77
2022/07/20 05:26:19;;;;;;;3.58;2.20;;;22.30;79.60;;;;;;5002791;28;20045;-76
2022/07/20 05:28:45;;;;;;;2.78;2.08;;;22.30;79.40;;;;;;5002541;28;20037;-77
2022/07/20 05:31:14;;;;;;;3.22;1.90;;;22.40;79.50;;;;;;5018730;28;20144;-77
2022/07/20 05:33:41;;;;;;;2.65;2.03;;;22.50;79.80;;;;;;5018790;28;20400;-77
2022/07/20 05:36:07;;;;;;;3.45;2.17;;;22.60;79.40;;;;;;5002368;28;20037;-76
2022/07/20 05:38:33;;;;;;;2.67;1.92;;;22.70;79.30;;;;;;5002169;28;20088;-76
2022/07/20 05:40:59;;;;;;;2.88;2.20;;;22.80;79.70;;;;;;5002369;28;20500;-76
2022/07/20 05:43:24;;;;;;;3.42;2.10;;;22.90;79.60;;;;;;5002305;28;20037;-76
2022/07/20 05:45:50;;;;;;;3.20;2.13;;;23.10;78.80;;;;;;5002174;28;20110;-76
2022/07/20 05:48:16;;;;;;;2.60;1.83;;;23.20;79.00;;;;;;5018745;28;20045;-76
2022/07/20 05:50:43;;;;;;;3.97;2.30;;;23.20;79.70;;;;;;4986276;28;20124;-76
2022/07/20 05:53:10;;;;;;;3.00;2.10;;;23.40;80.20;;;;;;5002337;28;20504;-76
2022/07/20 05:55:37;;;;;;;3.05;2.30;;;23.50;80.50;;;;;;5004793;28;20034;-75
2022/07/20 05:58:04;;;;;;;3.17;2.00;;;23.60;79.50;;;;;;4987208;28;20049;-76
2022/07/20 06:00:31;;;;;;;3.53;1.80;;;23.70;79.00;;;;;;5018179;28;20048;-76
2022/07/20 06:02:57;;;;;;;2.97;2.25;;;23.80;80.20;;;;;;5001954;28;20493;-76
2022/07/20 06:05:23;;;;;;;3.08;2.17;;;23.90;79.20;;;;;;5002183;28;20103;-78
2022/07/20 06:07:49;;;;;;;2.78;2.13;;;24.10;79.10;;;;;;5003279;28;20120;-76
2022/07/20 06:10:14;;;;;;;3.85;2.50;;;24.10;79.30;;;;;;5018022;28;20493;-77
2022/07/20 06:12:40;;;;;;;4.13;2.70;;;24.30;78.60;;;;;;4985697;28;20132;-77
2022/07/20 06:15:06;;;;;;;2.45;2.25;;;24.40;79.00;;;;;;5001436;28;20155;-76
2022/07/20 06:17:34;;;;;;;3.83;2.40;;;24.50;79.20;;;;;;4985469;28;20193;-76
2022/07/20 06:20:11;;;;;;;2.50;1.90;;;24.60;79.10;;;;;;5001590;28;20417;-77
2022/07/20 06:22:38;;;;;;;4.07;2.20;;;24.70;77.80;;;;;;5018178;28;20128;-77
2022/07/20 06:25:05;;;;;;;3.30;2.22;;;24.90;77.70;;;;;;5017767;28;20036;-76
2022/07/20 06:27:31;;;;;;;3.70;2.25;;;24.90;78.10;;;;;;5017934;28;20038;-76
2022/07/20 06:29:57;;;;;;;6.15;2.28;;;25.10;77.60;;;;;;5000909;28;20063;-76
2022/07/20 06:32:23;;;;;;;4.15;2.35;;;25.20;77.90;;;;;;5001261;28;20045;-76
2022/07/20 06:34:49;;;;;;;4.38;2.05;;;25.30;77.10;;;;;;5001330;28;20126;-76
2022/07/20 06:37:15;;;;;;;2.85;2.20;;;25.50;77.20;;;;;;5001554;28;20462;-77
2022/07/20 06:39:40;;;;;;;4.13;2.30;;;25.50;77.30;;;;;;5017766;28;20058;-77
2022/07/20 06:42:06;;;;;;;2.72;2.00;;;25.70;76.20;;;;;;5001110;28;20064;-77
2022/07/20 06:44:32;;;;;;;2.80;2.10;;;25.70;77.50;;;;;;5017430;28;20397;-76
2022/07/20 06:46:57;;;;;;;5.10;2.47;;;25.50;81.90;;;;;;5017285;28;20128;-77
2022/07/20 06:49:24;;;;;;;2.85;2.13;;;25.90;81.70;;;;;;5017258;28;20041;-77
2022/07/20 06:51:50;;;;;;;5.03;2.45;;;26.10;82.00;;;;;;5017260;28;20462;-77
2022/07/20 06:54:16;;;;;;;3.95;2.30;;;26.20;82.30;;;;;;5017308;28;20127;-76
2022/07/20 06:56:41;;;;;;;3.65;2.35;;;26.30;82.10;;;;;;5017186;28;20056;-76
2022/07/20 06:59:07;;;;;;;5.10;2.67;;;26.40;80.40;;;;;;5017300;28;20124;-76
2022/07/20 07:01:33;;;;;;;3.53;2.38;;;26.50;81.20;;;;;;5000892;28;20080;-77
2022/07/20 07:03:59;;;;;;;4.93;2.35;;;26.60;81.30;;;;;;5000871;28;20038;-77
2022/07/20 07:06:28;;;;;;;4.10;2.30;;;26.70;81.90;;;;;;5001334;28;20045;-76
2022/07/20 07:08:55;;;;;;;4.30;2.13;;;26.70;82.00;;;;;;5001451;28;20049;-76
2022/07/20 07:11:21;;;;;;;2.92;2.15;;;26.80;82.50;;;;;;5017234;28;20072;-77
2022/07/20 07:13:47;;;;;;;4.22;2.70;;;27.00;81.80;;;;;;5016905;28;20042;-77
2022/07/20 07:16:12;;;;;;;3.92;2.40;;;27.00;81.40;;;;;;5000527;28;20084;-77
2022/07/20 07:18:38;;;;;;;3.67;2.42;;;27.10;85.80;;;;;;4984162;28;20081;-77
2022/07/20 07:21:04;;;;;;;3.83;2.15;;;27.30;93.20;;;;;;5016684;28;20120;-76
2022/07/20 07:23:30;;;;;;;3.50;2.33;;;27.40;93.10;;;;;;5016653;28;20041;-77
2022/07/20 07:25:56;;;;;;;9.00;2.50;;;27.50;91.90;;;;;;4984215;28;20072;-77
2022/07/20 07:28:22;;;;;;;3.88;2.42;;;27.60;91.90;;;;;;5000620;28;20040;-77
2022/07/20 07:30:51;;;;;;;4.32;2.70;;;27.60;91.80;;;;;;4984998;28;20042;-77
2022/07/20 07:33:19;;;;;;;3.17;2.47;;;27.60;91.20;;;;;;5016420;28;20044;-77
2022/07/20 07:35:45;;;;;;;4.20;2.70;;;27.60;91.10;;;;;;5000396;28;20033;-77
2022/07/20 07:38:13;;;;;;;3.75;2.80;;;27.60;91.00;;;;;;5000405;28;20124;-77
2022/07/20 07:40:38;;;;;;;3.30;2.40;;;27.70;91.30;;;;;;5000012;28;20033;-77
2022/07/20 07:43:04;;;;;;;6.95;2.80;;;27.90;91.40;;;;;;5015513;28;20115;-77
2022/07/20 07:45:30;;;;;;;5.78;2.85;;;27.80;91.50;;;;;;5016274;28;20484;-77
2022/07/20 07:47:55;;;;;;;3.78;2.70;;;27.90;91.50;;;;;;4999860;28;20409;-77
2022/07/20 07:50:22;;;;;;;5.93;3.13;;;;;;;;;;4983764;28;20382;-77
2022/07/20 07:52:48;;;;;;;3.05;2.55;;;;;;;;;;4983685;28;20041;-77
2022/07/20 07:55:14;;;;;;;6.10;3.28;;;;;;;;;;5016115;28;20041;-77
2022/07/20 07:57:41;;;;;;;6.10;3.00;;;;;;;;;;4983940;28;20409;-77
2022/07/20 08:00:08;;;;;;;3.50;2.97;;;;;;;;;;4999591;28;20413;-77
2022/07/20 08:02:34;;;;;;;4.20;2.92;;;;;;;;;;4999817;28;20037;-77
2022/07/20 08:05:00;;;;;;;5.47;2.88;;;;;;;;;;4999557;28;20041;-77
2022/07/20 08:07:26;;;;;;;4.72;3.10;;;;;;;;;;5015896;28;20037;-77
2022/07/20 08:09:52;;;;;;;4.03;3.03;;;;;;;;;;4999477;28;20057;-77
2022/07/20 08:12:20;;;;;;;4.57;3.40;;;;;;;;;;5015786;28;20037;-77
2022/07/20 08:14:47;;;;;;;6.05;3.30;;;;;;;;;;4999365;28;20392;-77
2022/07/20 08:17:13;;;;;;;7.07;3.60;;;;;;;;;;4999188;28;20070;-77
2022/07/20 08:19:39;;;;;;;4.60;3.20;;;;;;;;;;4999249;28;20037;-77
2022/07/20 08:22:05;;;;;;;6.00;3.88;;;28.70;99.30;;;;;;4999552;28;20477;-77
2022/07/20 08:24:30;;;;;;;5.82;4.00;;;28.60;95.50;;;;;;4999335;28;20099;-77
2022/07/20 08:26:56;;;;;;;9.25;4.60;;;28.70;95.90;;;;;;4999433;28;20037;-77
2022/07/20 08:29:22;;;;;;;8.65;4.40;;;28.70;96.30;;;;;;4983524;28;20049;-76
2022/07/20 08:31:48;;;;;;;5.88;4.15;;;;;;;;;;4983384;28;20132;-77
2022/07/20 08:34:14;;;;;;;8.98;4.38;;;;;;;;;;5015201;28;20045;-77
2022/07/20 08:36:40;;;;;;;6.30;4.15;;;;;;;;;;5015258;28;20037;-77
2022/07/20 08:39:06;;;;;;;8.40;5.18;;;;;;;;;;5015014;28;20042;-77
2022/07/20 08:41:33;;;;;;;6.63;4.70;;;;;;;;;;5015440;28;20091;-77
2022/07/20 08:43:59;;;;;;;10.02;5.65;;;;;;;;;;4998744;28;20037;-77
2022/07/20 08:46:26;;;;;;;12.60;6.45;;;;;;;;;;4998826;28;20038;-77
2022/07/20 08:48:53;;;;;;;9.55;6.47;;;;;;;;;;4998720;28;20072;-77
2022/07/20 08:51:19;;;;;;;10.50;7.60;;;;;;;;;;5015025;28;20042;-77
2022/07/20 08:53:45;;;;;;;9.07;7.75;;;;;;;;;;4998613;28;20041;-77
2022/07/20 08:56:11;;;;;;;12.30;7.65;;;;;;;;;;5015031;28;20203;-77
2022/07/20 08:58:37;;;;;;;13.70;8.38;;;;;;;;;;5014845;28;20045;-77
2022/07/20 09:01:05;;;;;;;10.45;7.72;;;;;;;;;;4998749;28;20043;-76
2022/07/20 09:03:31;;;;;;;12.07;8.18;;;;;;;;;;5015542;28;20469;-76
2022/07/20 09:06:05;;;;;;;11.48;8.05;;;29.00;99.90;;;;;;5014808;28;20136;-77
2022/07/20 09:08:31;;;;;;;10.65;8.27;;;29.20;99.90;;;;;;4998519;28;20041;-77
2022/07/20 09:11:01;;;;;;;15.43;9.20;;;29.10;99.90;;;;;;4998445;28;20041;-77
2022/07/20 09:13:31;;;;;;;11.93;8.82;;;29.20;99.90;;;;;;5015035;28;20038;-77
2022/07/20 09:15:58;;;;;;;13.70;8.70;;;29.10;99.90;;;;;;4998336;28;20112;-77
2022/07/20 09:18:30;;;;;;;12.02;8.35;;;29.10;99.80;;;;;;4998784;28;20046;-77
2022/07/20 09:21:04;;;;;;;14.23;7.70;;;29.30;99.30;;;;;;5015035;28;20463;-77
2022/07/20 09:23:33;;;;;;;11.75;8.50;;;;;;;;;;5014729;28;20049;-77
2022/07/20 09:26:02;;;;;;;11.88;8.48;;;;;;;;;;5014570;28;20037;-77
2022/07/20 09:28:36;;;;;;;14.43;8.95;;;;;;;;;;5014673;28;20038;-77
2022/07/20 09:31:02;;;;;;;13.23;8.48;;;29.40;99.90;;;;;;5014920;28;20034;-77
2022/07/20 09:33:29;;;;;;;12.20;9.32;;;;;;;;;;5014672;28;20048;-76
2022/07/20 09:35:55;;;;;;;15.32;10.35;;;;;;;;;;4998484;28;20033;-76
2022/07/20 09:38:28;;;;;;;15.57;9.93;;;;;;;;;;5014645;28;20037;-76
2022/07/20 09:40:54;;;;;;;14.07;10.05;;;;;;;;;;4998114;28;20041;-76
2022/07/20 09:43:27;;;;;;;17.27;9.57;;;;;;;;;;4998591;28;20077;-76
2022/07/20 09:45:54;;;;;;;13.45;9.32;;;;;;;;;;4998400;28;20046;-76
2022/07/20 09:48:23;;;;;;;15.20;8.50;;;;;;;;;;5014571;28;20090;-76
2022/07/20 09:50:49;;;;;;;18.27;8.90;;;;;;;;;;5014768;28;20054;-77
2022/07/20 09:53:16;;;;;;;15.43;9.50;;;;;;;;;;5014372;28;20060;-76
2022/07/20 09:55:43;;;;;;;13.00;8.93;;;;;;;;;;5014732;28;20099;-76
2022/07/20 09:58:09;;;;;;;14.27;8.65;;;;;;;;;;5014481;28;20084;-76
2022/07/20 10:00:36;;;;;;;15.70;9.98;;;;;;;;;;5014487;28;20049;-76
2022/07/20 10:03:03;;;;;;;13.52;9.30;;;;;;;;;;5014725;28;20505;-76
2022/07/20 10:05:33;;;;;;;14.63;9.15;;;;;;;;;;4999420;28;20099;-76
2022/07/20 10:08:06;;;;;;;10.75;8.32;;;;;;;;;;5017949;28;20037;-76
2022/07/20 10:10:33;;;;;;;14.90;9.43;;;;;;;;;;5018225;28;20049;-76
2022/07/20 10:13:00;;;;;;;13.43;8.85;;;;;;;;;;4985402;28;20083;-76
2022/07/20 10:15:36;;;;;;;12.65;9.07;;;;;;;;;;5001517;28;20050;-76
2022/07/20 10:18:02;;;;;;;12.07;8.98;;;;;;;;;;5017938;28;20045;-76
2022/07/20 10:20:33;;;;;;;14.75;9.07;;;;;;;;;;5017687;28;20041;-76
2022/07/20 10:23:17;;;;;;;14.60;9.27;;;;;;;;;;5017963;28;20128;-76
2022/07/20 10:25:44;;;;;;;15.95;9.15;;;;;;;;;;5017893;28;20491;-76
2022/07/20 10:28:31;;;;;;;12.50;8.23;;;;;;;;;;5017848;28;20367;-76
2022/07/20 10:31:00;;;;;;;12.48;8.65;;;;;;;;;;5001195;28;20041;-76
2022/07/20 10:33:27;;;;;;;9.85;8.10;;;;;;;;;;5017409;28;20045;-76
2022/07/20 10:36:41;;;;;;;10.55;8.20;;;;;;;;;;5017703;28;20480;-77
2022/07/20 10:38:39;;;;;;;11.13;7.90;;;;;;;;;;5003873;28;20053;-76
2022/07/20 10:44:13;;;;;;;10.80;7.97;;;;;;;;;;5017356;28;20156;-76
2022/07/20 10:46:39;;;;;;;11.82;7.43;;;;;;;;;;5001418;28;20412;-76
2022/07/20 10:49:05;;;;;;;11.95;7.57;;;;;;;;;;5001244;28;20366;-76
2022/07/20 10:51:32;;;;;;;10.80;6.82;;;;;;;;;;5001148;28;20128;-79
2022/07/20 10:54:18;;;;;;;11.05;6.80;;;;;;;;;;5000826;28;20037;-76
2022/07/20 10:56:44;;;;;;;7.30;6.28;;;;;;;;;;5016985;28;20061;-77
2022/07/20 10:59:11;;;;;;;12.00;7.38;;;;;;;;;;4984820;28;20037;-77
2022/07/20 11:01:37;;;;;;;9.05;6.53;;;;;;;;;;5017103;28;20378;-77
2022/07/20 11:04:11;;;;;;;12.05;7.00;;;;;;;;;;5017011;28;20046;-77
2022/07/20 11:06:38;;;;;;;11.27;6.90;;;;;;;;;;5001075;28;20088;-77
2022/07/20 11:09:04;;;;;;;13.55;7.00;;;;;;;;;;4984724;28;20072;-77
2022/07/20 11:11:35;;;;;;;9.52;6.70;;;;;;;;;;5001126;28;20393;-77
2022/07/20 11:14:05;;;;;;;7.63;5.40;;;;;;;;;;5000598;28;20037;-77
2022/07/20 11:16:31;;;;;;;;;;;;;;;;;;5016175;28;20058;-77
2022/07/20 11:18:58;;;;;;;8.10;5.38;;;;;;;;;;5016833;28;19928;-77
2022/07/20 11:21:31;;;;;;;8.02;5.80;;;;;;;;;;5016696;28;20175;-77
2022/07/20 11:23:58;;;;;;;8.93;5.38;;;;;;;;;;5016722;28;20079;-77
2022/07/20 11:26:24;;;;;;;9.07;5.72;;;;;;;;;;5016909;28;20505;-77
2022/07/20 11:28:54;;;;;;;7.22;5.55;;;;;;;;;;5000581;28;20393;-77
2022/07/20 11:31:21;;;;;;;7.18;5.50;;;;;;;;;;5016551;28;20045;-77
2022/07/20 11:33:48;;;;;;;9.38;4.65;;;;;;;;;;5016765;28;20098;-77
2022/07/20 11:36:14;;;;;;;9.52;5.53;;;;;;;;;;5016552;28;20048;-77
2022/07/20 11:38:42;;;;;;;5.28;4.13;;;;;;;;;;5016398;28;20079;-77
2022/07/20 11:41:15;;;;;;;10.32;4.95;;;;;;;;;;5016446;28;20042;-77
2022/07/20 11:43:42;;;;;;;6.45;4.22;;;;;;;;;;5016394;28;20056;-77
2022/07/20 11:46:09;;;;;;;8.48;5.07;;;;;;;;;;5016311;28;20045;-77
2022/07/20 11:48:35;;;;;;;8.50;5.07;;;;;;;;;;5000004;28;20047;-77
2022/07/20 11:51:01;;;;;;;6.50;4.85;;;;;;;;;;5016169;28;20037;-77
2022/07/20 11:53:28;;;;;;;9.95;5.05;;;;;;;;;;5016112;28;20041;-77
2022/07/20 11:55:55;;;;;;;7.47;4.45;;;;;;;;;;5016139;28;20033;-77
2022/07/20 11:58:29;;;;;;;5.47;4.38;;;;;;;;;;5016145;28;20034;-77
2022/07/20 12:00:55;;;;;;;6.60;4.97;;;;;;;;;;5015965;28;20085;-77
2022/07/20 12:03:26;;;;;;;6.75;4.65;;;;;;;;;;5015855;28;20092;-77
2022/07/20 12:05:52;;;;;;;8.18;4.63;;;;;;;;;;5016244;28;20528;-77
2022/07/20 12:08:19;;;;;;;7.55;4.40;;;;;;;;;;4999685;28;20034;-77
2022/07/20 12:10:46;;;;;;;8.98;4.80;;;;;;;;;;5015925;28;20137;-76
2022/07/20 12:13:13;;;;;;;6.28;4.45;;;;;;;;;;5016144;28;20107;-77
2022/07/20 12:15:40;;;;;;;6.93;4.70;;;;;;;;;;5015669;28;20072;-76
2022/07/20 12:18:06;;;;;;;6.25;4.50;;;;;;;;;;4999300;28;20041;-76
2022/07/20 12:20:32;;;;;;;9.25;4.07;;;;;;;;;;4999477;28;20044;-77
2022/07/20 12:22:59;;;;;;;6.57;4.40;;;;;;;;;;5015909;28;20037;-77
2022/07/20 12:25:39;;;;;;;8.75;3.92;;;;;;;;;;4999302;28;20033;-77
2022/07/20 12:28:05;;;;;;;7.22;4.60;;;;;;;;;;5015202;28;20122;-77
2022/07/20 12:30:37;;;;;;;6.05;3.63;;;;;;;;;;4983153;28;20045;-77
2022/07/20 12:33:06;;;;;;;4.97;4.15;;;;;;;;;;4999886;28;20108;-77
2022/07/20 12:35:33;;;;;;;6.47;4.10;;;30.10;75.60;;;;;;5015601;28;20073;-77
2022/07/20 12:37:59;;;;;;;7.25;4.22;;;30.10;76.00;;;;;;5015662;28;20041;-77
2022/07/20 12:40:37;;;;;;;7.90;4.10;;;30.10;76.40;;;;;;4999031;28;20041;-76
2022/07/20 12:43:22;;;;;;;5.97;3.58;;;30.00;75.20;;;;;;4998843;28;20052;-76
2022/07/20 12:45:47;;;;;;;6.80;3.63;;;30.00;74.90;;;;;;5015654;28;20456;-75
2022/07/20 12:48:13;;;;;;;7.82;3.28;;;30.00;74.40;;;;;;5015122;28;20492;-76
2022/07/20 12:50:39;;;;;;;4.00;3.28;;;29.90;73.90;;;;;;5015112;28;20045;-75
2022/07/20 12:53:04;;;;;;;7.72;3.50;;;30.00;73.90;;;;;;4999126;28;20057;-76
2022/07/20 12:55:30;;;;;;;6.78;3.50;;;29.80;73.80;;;;;;4982798;28;20041;-76
2022/07/20 12:57:56;;;;;;;6.65;3.60;;;29.90;73.70;;;;;;4999159;28;20500;-76
2022/07/20 13:00:21;;;;;;;6.43;3.85;;;29.90;75.70;;;;;;5014994;28;20049;-77
2022/07/20 13:02:47;;;;;;;4.38;3.10;;;29.90;75.20;;;;;;4998810;28;20033;-76
2022/07/20 13:05:13;;;;;;;4.45;3.22;;;30.00;74.60;;;;;;4999090;28;20139;-76
2022/07/20 13:07:38;;;;;;;5.85;3.25;;;29.90;74.30;;;;;;4998864;28;20100;-76
2022/07/20 13:10:05;;;;;;;4.30;2.97;;;30.00;74.30;;;;;;4982467;28;20119;-76
2022/07/20 13:12:31;;;;;;;5.72;3.38;;;29.90;73.10;;;;;;4999051;28;20037;-76
2022/07/20 13:14:56;;;;;;;4.50;3.20;;;30.00;73.50;;;;;;4998552;28;20045;-76
2022/07/20 13:17:22;;;;;;;5.30;3.13;;;30.00;73.90;;;;;;5014963;28;20065;-77
2022/07/20 13:19:48;;;;;;;3.90;3.03;;;30.00;74.20;;;;;;5015587;28;20481;-77
2022/07/20 13:22:14;;;;;;;6.20;3.45;;;30.00;74.20;;;;;;4999076;28;20048;-76